createdAt,value
2022-12-18T00:02:04.829Z,-5.60
2022-12-18T00:04:34.619Z,-5.72
2022-12-18T00:07:02.107Z,-5.54
2022-12-18T00:09:39.736Z,-5.42
2022-12-18T00:14:43.656Z,-5.37
2022-12-18T00:17:10.798Z,-5.22
2022-12-18T00:19:38.208Z,-5.20
2022-12-18T00:22:06.355Z,-5.34
2022-12-18T00:24:39.831Z,-5.44
2022-12-18T00:27:07.308Z,-5.32
2022-12-18T00:29:34.770Z,-5.49
2022-12-18T00:32:02.237Z,-5.43
2022-12-18T00:34:29.543Z,-5.42
2022-12-18T00:36:57.139Z,-5.32
2022-12-18T00:39:24.580Z,-5.15
2022-12-18T00:42:10.657Z,-5.24
2022-12-18T00:44:37.809Z,-5.39
2022-12-18T00:47:05.378Z,-5.23
2022-12-18T00:49:32.957Z,-5.28
2022-12-18T00:52:00.421Z,-5.51
2022-12-18T00:54:28.891Z,-5.53
2022-12-18T00:56:57.312Z,-5.36
2022-12-18T00:59:24.789Z,-5.56
2022-12-18T01:01:52.443Z,-5.52
2022-12-18T01:04:19.553Z,-5.33
2022-12-18T01:06:47.261Z,-5.25
2022-12-18T01:09:14.711Z,-5.23
2022-12-18T01:11:42.089Z,-5.13
2022-12-18T01:14:09.683Z,-5.05
2022-12-18T01:16:37.003Z,-5.22
2022-12-18T01:19:04.392Z,-5.10
2022-12-18T01:21:31.922Z,-5.17
2022-12-18T01:23:59.362Z,-5.14
2022-12-18T01:26:28.660Z,-5.14
2022-12-18T01:28:57.591Z,-5.22
2022-12-18T01:31:32.377Z,-5.42
2022-12-18T01:34:02.885Z,-5.71
2022-12-18T01:36:33.458Z,-5.85
2022-12-18T01:39:03.117Z,-5.86
2022-12-18T01:41:52.209Z,-5.46
2022-12-18T01:44:54.478Z,-5.41
2022-12-18T01:47:48.978Z,-5.31
2022-12-18T01:50:19.023Z,-5.25
2022-12-18T01:52:55.327Z,-5.13
2022-12-18T01:55:29.188Z,-5.16
2022-12-18T01:57:59.237Z,-5.37
2022-12-18T02:00:28.058Z,-5.63
2022-12-18T02:02:56.979Z,-5.68
2022-12-18T02:05:42.517Z,-5.41
2022-12-18T02:08:33.037Z,-5.20
2022-12-18T02:11:24.125Z,-5.13
2022-12-18T02:14:06.542Z,-5.49
2022-12-18T02:16:56.630Z,-5.59
2022-12-18T02:19:45.812Z,-5.82
2022-12-18T02:22:22.599Z,-5.74
2022-12-18T02:25:10.907Z,-5.79
2022-12-18T02:27:41.896Z,-5.41
2022-12-18T02:30:09.867Z,-5.41
2022-12-18T02:32:42.382Z,-5.31
2022-12-18T02:35:15.063Z,-5.52
2022-12-18T02:37:45.618Z,-5.47
2022-12-18T02:40:15.486Z,-5.39
2022-12-18T02:42:43.065Z,-5.62
2022-12-18T02:45:11.005Z,-5.82
2022-12-18T02:47:41.843Z,-5.88
2022-12-18T02:50:28.418Z,-5.67
2022-12-18T02:53:23.487Z,-5.59
2022-12-18T02:56:16.314Z,-5.45
2022-12-18T02:59:08.518Z,-5.52
2022-12-18T03:02:00.819Z,-5.70
2022-12-18T03:04:34.038Z,-5.64
2022-12-18T03:07:06.498Z,-5.74
2022-12-18T03:09:41.223Z,-5.87
2022-12-18T03:12:38.099Z,-5.74
2022-12-18T03:15:20.849Z,-5.76
2022-12-18T03:17:58.136Z,-5.79
2022-12-18T03:20:28.848Z,-5.65
2022-12-18T03:23:03.750Z,-5.52
2022-12-18T03:25:32.859Z,-5.45
2022-12-18T03:28:02.824Z,-5.44
2022-12-18T03:30:32.626Z,-5.36
2022-12-18T03:33:14.728Z,-5.24
2022-12-18T03:35:44.497Z,-5.27
2022-12-18T03:38:12.323Z,-5.17
2022-12-18T03:41:04.141Z,-5.12
2022-12-18T03:43:49.531Z,-4.96
2022-12-18T03:46:32.082Z,-4.99
2022-12-18T03:49:16.350Z,-5.08
2022-12-18T03:52:10.455Z,-5.04
2022-12-18T03:54:39.720Z,-5.04
2022-12-18T03:57:14.119Z,-5.24
2022-12-18T03:59:42.987Z,-5.53
2022-12-18T04:02:10.841Z,-5.35
2022-12-18T04:04:40.939Z,-5.33
2022-12-18T04:07:09.038Z,-5.32
2022-12-18T04:09:39.776Z,-5.11
2022-12-18T04:12:07.685Z,-5.22
2022-12-18T04:14:36.830Z,-5.21
2022-12-18T04:17:04.807Z,-5.21
2022-12-18T04:19:32.033Z,-5.14
2022-12-18T04:22:00.418Z,-5.01
2022-12-18T04:24:28.211Z,-5.05
2022-12-18T04:26:55.519Z,-5.31
2022-12-18T04:29:29.521Z,-5.47
2022-12-18T04:31:56.977Z,-5.35
2022-12-18T04:34:24.405Z,-5.19
2022-12-18T04:36:52.330Z,-5.14
2022-12-18T04:39:19.947Z,-4.92
2022-12-18T04:41:47.307Z,-5.08
2022-12-18T04:44:15.242Z,-5.15
2022-12-18T04:46:42.804Z,-5.14
2022-12-18T04:49:12.272Z,-5.14
2022-12-18T04:51:40.207Z,-5.05
2022-12-18T04:54:07.711Z,-5.00
2022-12-18T04:56:35.162Z,-4.98
2022-12-18T04:59:02.619Z,-4.99
2022-12-18T05:01:34.486Z,-4.95
2022-12-18T05:04:03.190Z,-5.09
2022-12-18T05:06:30.718Z,-5.14
2022-12-18T05:08:59.182Z,-5.00
2022-12-18T05:11:26.741Z,-5.05
2022-12-18T05:13:55.187Z,-5.02
2022-12-18T05:16:23.624Z,-4.82
2022-12-18T05:18:52.075Z,-4.88
2022-12-18T05:21:19.542Z,-4.79
2022-12-18T05:23:47.572Z,-4.94
2022-12-18T05:26:19.827Z,-4.89
2022-12-18T05:28:48.088Z,-4.96
2022-12-18T05:31:15.773Z,-4.96
2022-12-18T05:33:43.317Z,-4.98
2022-12-18T05:36:12.636Z,-4.98
2022-12-18T05:38:40.851Z,-4.93
2022-12-18T05:41:08.780Z,-4.74
2022-12-18T05:43:38.052Z,-4.84
2022-12-18T05:46:07.277Z,-5.02
2022-12-18T05:48:35.467Z,-5.04
2022-12-18T05:51:10.876Z,-4.96
2022-12-18T05:53:39.019Z,-4.85
2022-12-18T05:56:10.059Z,-4.89
2022-12-18T05:58:39.018Z,-4.88
2022-12-18T06:01:19.394Z,-4.79
2022-12-18T06:03:46.920Z,-4.88
2022-12-18T06:06:16.929Z,-4.82
2022-12-18T06:08:46.693Z,-4.93
2022-12-18T06:11:18.728Z,-4.78
2022-12-18T06:13:48.187Z,-4.93
2022-12-18T06:16:15.287Z,-4.93
2022-12-18T06:18:42.762Z,-4.91
2022-12-18T06:21:10.902Z,-4.93
2022-12-18T06:23:38.510Z,-4.84
2022-12-18T06:26:14.820Z,-4.92
2022-12-18T06:28:42.624Z,-5.00
2022-12-18T06:31:10.431Z,-4.85
2022-12-18T06:33:43.580Z,-4.72
2022-12-18T06:36:13.208Z,-4.90
2022-12-18T06:38:43.203Z,-4.97
2022-12-18T06:41:20.218Z,-4.79
2022-12-18T06:43:47.638Z,-4.88
2022-12-18T06:46:15.375Z,-5.07
2022-12-18T06:48:42.761Z,-5.04
2022-12-18T06:51:09.934Z,-5.01
2022-12-18T06:53:38.127Z,-4.87
2022-12-18T06:56:10.141Z,-4.85
2022-12-18T06:58:38.962Z,-4.86
2022-12-18T07:01:09.257Z,-4.75
2022-12-18T07:03:37.363Z,-4.78
2022-12-18T07:06:06.141Z,-4.73
2022-12-18T07:08:34.029Z,-4.87
2022-12-18T07:11:04.794Z,-4.81
2022-12-18T07:13:33.165Z,-4.76
2022-12-18T07:16:24.674Z,-4.81
2022-12-18T07:18:57.018Z,-4.82
2022-12-18T07:21:26.440Z,-4.86
2022-12-18T07:23:53.601Z,-4.98
2022-12-18T07:26:23.179Z,-5.06
2022-12-18T07:28:52.099Z,-5.02
2022-12-18T07:31:22.224Z,-5.06
2022-12-18T07:33:50.437Z,-5.01
2022-12-18T07:36:19.787Z,-5.02
2022-12-18T07:38:49.521Z,-5.06
2022-12-18T07:41:19.877Z,-5.14
2022-12-18T07:43:47.179Z,-5.08
2022-12-18T07:46:17.015Z,-5.12
2022-12-18T07:48:49.566Z,-5.18
2022-12-18T07:51:18.992Z,-5.15
2022-12-18T07:53:48.333Z,-5.15
2022-12-18T07:56:27.603Z,-5.16
2022-12-18T07:58:55.417Z,-5.09
2022-12-18T08:01:23.129Z,-4.99
2022-12-18T08:03:52.457Z,-5.01
2022-12-18T08:06:22.376Z,-5.03
2022-12-18T08:08:53.396Z,-4.91
2022-12-18T08:11:21.475Z,-5.06
2022-12-18T08:13:48.836Z,-5.03
2022-12-18T08:16:18.795Z,-4.98
2022-12-18T08:18:47.021Z,-4.92
2022-12-18T08:21:26.054Z,-4.85
2022-12-18T08:23:55.365Z,-4.84
2022-12-18T08:26:23.547Z,-4.71
2022-12-18T08:28:55.564Z,-4.74
2022-12-18T08:31:24.104Z,-4.71
2022-12-18T08:33:53.992Z,-4.60
2022-12-18T08:36:23.449Z,-4.62
2022-12-18T08:38:53.742Z,-4.58
2022-12-18T08:41:22.136Z,-4.72
2022-12-18T08:44:07.685Z,-4.74
2022-12-18T08:46:40.187Z,-4.75
2022-12-18T08:49:09.347Z,-4.77
2022-12-18T08:51:37.370Z,-4.68
2022-12-18T08:54:06.590Z,-4.60
2022-12-18T08:56:35.989Z,-4.49
2022-12-18T08:59:03.126Z,-4.48
2022-12-18T09:01:30.493Z,-4.42
2022-12-18T09:03:58.540Z,-4.40
2022-12-18T09:06:25.830Z,-4.24
2022-12-18T09:08:53.283Z,-4.35
2022-12-18T09:11:24.601Z,-4.49
2022-12-18T09:13:53.701Z,-4.50
2022-12-18T09:16:21.378Z,-4.48
2022-12-18T09:18:49.440Z,-4.29
2022-12-18T09:21:22.442Z,-4.05
2022-12-18T09:23:54.323Z,-4.04
2022-12-18T09:26:23.012Z,-4.15
2022-12-18T09:28:50.651Z,-4.11
2022-12-18T09:31:22.182Z,-4.23
2022-12-18T09:33:49.323Z,-4.34
2022-12-18T09:36:19.075Z,-4.41
2022-12-18T09:38:46.518Z,-4.22
2022-12-18T09:41:35.654Z,-4.12
2022-12-18T09:44:19.197Z,-4.18
2022-12-18T09:46:59.711Z,-4.37
2022-12-18T09:49:32.051Z,-4.51
2022-12-18T09:52:31.638Z,-4.62
2022-12-18T09:55:05.767Z,-4.78
2022-12-18T09:57:36.999Z,-4.63
2022-12-18T10:00:16.951Z,-4.53
2022-12-18T10:02:44.282Z,-4.49
2022-12-18T10:05:37.573Z,-4.57
2022-12-18T10:08:18.127Z,-4.74
2022-12-18T10:10:51.531Z,-4.50
2022-12-18T10:13:18.837Z,-4.65
2022-12-18T10:15:55.293Z,-4.53
2022-12-18T10:18:31.339Z,-4.59
2022-12-18T10:21:11.765Z,-4.71
2022-12-18T10:24:03.398Z,-4.71
2022-12-18T10:26:33.171Z,-4.65
2022-12-18T10:29:05.461Z,-4.42
2022-12-18T10:31:33.227Z,-4.33
2022-12-18T10:34:00.489Z,-4.21
2022-12-18T10:36:30.257Z,-4.21
2022-12-18T10:39:16.631Z,-4.08
2022-12-18T10:41:43.982Z,-3.93
2022-12-18T10:44:23.037Z,-4.15
2022-12-18T10:47:10.209Z,-4.15
2022-12-18T10:49:49.340Z,-4.01
2022-12-18T10:52:27.301Z,-3.73
2022-12-18T10:55:03.102Z,-3.69
2022-12-18T10:57:32.464Z,-3.62
2022-12-18T11:00:01.660Z,-3.85
2022-12-18T11:02:34.583Z,-4.00
2022-12-18T11:05:02.153Z,-4.45
2022-12-18T11:07:51.449Z,-4.52
2022-12-18T11:10:20.706Z,-4.48
2022-12-18T11:12:48.618Z,-4.52
2022-12-18T11:15:29.079Z,-4.40
2022-12-18T11:17:56.473Z,-4.23
2022-12-18T11:20:34.047Z,-4.05
2022-12-18T11:23:04.468Z,-3.95
2022-12-18T11:25:35.397Z,-3.73
2022-12-18T11:28:39.134Z,-3.74
2022-12-18T11:31:29.368Z,-3.79
2022-12-18T11:34:29.103Z,-3.74
2022-12-18T11:37:01.043Z,-4.03
2022-12-18T11:39:50.597Z,-3.89
2022-12-18T11:42:35.828Z,-3.86
2022-12-18T11:45:26.033Z,-4.23
2022-12-18T11:48:06.940Z,-4.26
2022-12-18T11:50:53.079Z,-4.09
2022-12-18T11:53:21.485Z,-4.13
2022-12-18T11:55:55.168Z,-3.91
2022-12-18T11:58:57.108Z,-3.77
2022-12-18T12:01:46.070Z,-4.13
2022-12-18T12:04:29.220Z,-4.25
2022-12-18T12:07:11.544Z,-4.45
2022-12-18T12:09:54.225Z,-4.33
2022-12-18T12:12:50.526Z,-4.43
2022-12-18T12:15:56.014Z,-4.38
2022-12-18T12:19:08.373Z,-4.67
2022-12-18T12:21:47.092Z,-4.63
2022-12-18T12:24:37.236Z,-4.67
2022-12-18T12:27:31.172Z,-4.92
2022-12-18T12:30:44.147Z,-5.20
2022-12-18T12:33:30.276Z,-4.96
2022-12-18T12:36:09.259Z,-4.96
2022-12-18T12:38:51.716Z,-4.76
2022-12-18T12:41:43.798Z,-5.11
2022-12-18T12:44:20.462Z,-5.18
2022-12-18T12:46:49.641Z,-5.36
2022-12-18T12:49:21.765Z,-5.21
2022-12-18T12:52:12.389Z,-5.10
2022-12-18T12:54:40.565Z,-4.84
2022-12-18T12:57:34.925Z,-4.57
2022-12-18T13:00:11.706Z,-4.64
2022-12-18T13:02:48.902Z,-4.64
2022-12-18T13:05:42.578Z,-4.46
2022-12-18T13:08:12.270Z,-4.41
2022-12-18T13:10:44.113Z,-4.23
2022-12-18T13:13:23.320Z,-4.31
2022-12-18T13:16:07.071Z,-4.39
2022-12-18T13:18:35.953Z,-4.51
2022-12-18T13:21:17.644Z,-4.83
2022-12-18T13:23:51.061Z,-4.95
2022-12-18T13:26:21.938Z,-4.98
2022-12-18T13:28:55.700Z,-5.18
2022-12-18T13:31:41.162Z,-5.28
2022-12-18T13:34:26.881Z,-5.24
2022-12-18T13:36:57.521Z,-5.05
2022-12-18T13:42:49.294Z,-5.21
2022-12-18T13:45:41.851Z,-5.30
2022-12-18T13:48:22.011Z,-5.33
2022-12-18T13:51:04.703Z,-5.34
2022-12-18T13:53:37.804Z,-5.44
2022-12-18T13:56:06.680Z,-5.48
2022-12-18T13:58:34.741Z,-5.43
2022-12-18T14:01:04.312Z,-5.39
2022-12-18T14:03:32.014Z,-5.32
2022-12-18T14:06:10.210Z,-5.35
2022-12-18T14:08:41.926Z,-5.29
2022-12-18T14:11:23.567Z,-5.23
2022-12-18T14:13:54.104Z,-5.04
2022-12-18T14:16:21.454Z,-4.87
2022-12-18T14:19:04.552Z,-4.84
2022-12-18T14:21:46.164Z,-4.76
2022-12-18T14:24:22.963Z,-4.81
2022-12-18T14:26:51.652Z,-4.81
2022-12-18T14:29:26.745Z,-4.92
2022-12-18T14:32:14.955Z,-5.07
2022-12-18T14:34:58.403Z,-5.08
2022-12-18T14:37:28.375Z,-5.28
2022-12-18T14:40:11.328Z,-5.47
2022-12-18T14:42:39.116Z,-5.49
2022-12-18T14:45:41.486Z,-5.49
2022-12-18T14:48:43.202Z,-5.63
2022-12-18T14:51:26.205Z,-5.83
2022-12-18T14:54:21.731Z,-5.76
2022-12-18T14:57:01.616Z,-5.77
2022-12-18T14:59:32.003Z,-5.74
2022-12-18T15:02:10.414Z,-5.95
2022-12-18T15:04:44.531Z,-6.07
2022-12-18T15:07:12.310Z,-6.25
2022-12-18T15:09:44.331Z,-6.39
2022-12-18T15:12:39.521Z,-6.75
2022-12-18T15:15:27.929Z,-6.80
2022-12-18T15:18:01.971Z,-7.00
2022-12-18T15:20:34.836Z,-6.92
2022-12-18T15:23:02.694Z,-6.86
2022-12-18T15:25:38.751Z,-7.09
2022-12-18T15:28:21.497Z,-7.21
2022-12-18T15:31:23.377Z,-7.33
2022-12-18T15:33:54.571Z,-7.40
2022-12-18T15:36:26.474Z,-7.47
2022-12-18T15:39:05.358Z,-7.60
2022-12-18T15:41:38.061Z,-7.66
2022-12-18T15:44:27.640Z,-7.59
2022-12-18T15:46:56.079Z,-7.72
2022-12-18T15:49:25.663Z,-7.84
2022-12-18T15:52:01.188Z,-8.04
2022-12-18T15:54:47.725Z,-7.98
2022-12-18T15:57:25.036Z,-8.11
2022-12-18T16:00:01.066Z,-7.97
2022-12-18T16:02:30.446Z,-8.02
2022-12-18T16:05:06.692Z,-8.06
2022-12-18T16:07:36.127Z,-8.30
2022-12-18T16:10:04.595Z,-8.38
2022-12-18T16:12:33.327Z,-8.44
2022-12-18T16:15:03.666Z,-8.44
2022-12-18T16:17:40.809Z,-8.56
2022-12-18T16:20:17.800Z,-8.57
2022-12-18T16:22:48.166Z,-8.56
2022-12-18T16:25:27.444Z,-8.48
2022-12-18T16:27:58.545Z,-8.70
2022-12-18T16:30:38.155Z,-8.80
2022-12-18T16:33:07.830Z,-8.69
2022-12-18T16:35:38.981Z,-8.81
2022-12-18T16:38:07.663Z,-8.83
2022-12-18T16:40:56.107Z,-8.85
2022-12-18T16:43:27.157Z,-8.80
2022-12-18T16:45:58.576Z,-8.86
2022-12-18T16:48:27.572Z,-8.88
2022-12-18T16:51:07.195Z,-8.73
2022-12-18T16:53:35.784Z,-8.93
2022-12-18T16:56:04.840Z,-8.74
2022-12-18T16:58:34.396Z,-8.90
2022-12-18T17:01:02.575Z,-8.86
2022-12-18T17:03:30.176Z,-8.52
2022-12-18T17:06:04.736Z,-8.55
2022-12-18T17:08:33.785Z,-8.49
2022-12-18T17:11:11.757Z,-8.57
2022-12-18T17:13:40.260Z,-8.74
2022-12-18T17:16:09.710Z,-8.70
2022-12-18T17:18:39.268Z,-8.81
2022-12-18T17:21:12.022Z,-8.90
2022-12-18T17:23:40.528Z,-8.57
2022-12-18T17:26:11.288Z,-8.87
2022-12-18T17:28:44.442Z,-8.75
2022-12-18T17:31:15.336Z,-8.94
2022-12-18T17:33:44.640Z,-8.89
2022-12-18T17:36:13.234Z,-8.89
2022-12-18T17:38:44.974Z,-8.97
2022-12-18T17:41:13.437Z,-9.06
2022-12-18T17:44:08.499Z,-9.02
2022-12-18T17:46:36.763Z,-8.88
2022-12-18T17:49:05.767Z,-9.00
2022-12-18T17:51:34.751Z,-9.20
2022-12-18T17:54:03.560Z,-8.99
2022-12-18T17:56:31.335Z,-8.99
2022-12-18T17:59:00.742Z,-8.98
2022-12-18T18:01:29.355Z,-9.06
2022-12-18T18:03:57.613Z,-9.14
2022-12-18T18:06:26.291Z,-9.36
2022-12-18T18:08:56.081Z,-9.22
2022-12-18T18:11:43.676Z,-9.30
2022-12-18T18:14:19.011Z,-9.37
2022-12-18T18:16:52.850Z,-9.23
2022-12-18T18:19:26.228Z,-9.01
2022-12-18T18:21:54.888Z,-9.15
2022-12-18T18:24:25.241Z,-9.18
2022-12-18T18:26:53.618Z,-9.21
2022-12-18T18:29:26.224Z,-9.18
2022-12-18T18:31:57.887Z,-9.20
2022-12-18T18:34:28.948Z,-9.11
2022-12-18T18:36:58.010Z,-9.14
2022-12-18T18:39:26.308Z,-9.18
2022-12-18T18:41:54.642Z,-9.10
2022-12-18T18:44:26.695Z,-9.04
2022-12-18T18:47:02.347Z,-9.00
2022-12-18T18:49:33.933Z,-9.05
2022-12-18T18:52:03.563Z,-8.95
2022-12-18T18:54:31.903Z,-8.94
2022-12-18T18:57:20.028Z,-8.86
2022-12-18T18:59:49.478Z,-8.97
2022-12-18T19:02:18.732Z,-8.90
2022-12-18T19:04:48.992Z,-8.86
2022-12-18T19:07:29.381Z,-8.96
2022-12-18T19:10:04.248Z,-9.00
2022-12-18T19:12:53.582Z,-9.07
2022-12-18T19:15:22.377Z,-8.94
2022-12-18T19:17:51.110Z,-8.94
2022-12-18T19:20:21.343Z,-9.04
2022-12-18T19:22:55.787Z,-9.03
2022-12-18T19:25:38.316Z,-9.06
2022-12-18T19:28:22.288Z,-9.08
2022-12-18T19:30:58.630Z,-9.18
2022-12-18T19:33:45.378Z,-9.01
2022-12-18T19:36:20.957Z,-9.08
2022-12-18T19:38:50.793Z,-9.09
2022-12-18T19:41:20.318Z,-9.11
2022-12-18T19:43:48.788Z,-9.10
2022-12-18T19:46:19.615Z,-9.13
2022-12-18T19:48:49.966Z,-9.16
2022-12-18T19:51:23.346Z,-9.19
2022-12-18T19:53:56.647Z,-9.18
2022-12-18T19:56:28.774Z,-9.20
2022-12-18T19:58:58.624Z,-9.18
2022-12-18T20:01:30.345Z,-9.21
2022-12-18T20:03:59.650Z,-9.23
2022-12-18T20:06:35.069Z,-9.27
2022-12-18T20:09:07.665Z,-9.27
2022-12-18T20:11:41.503Z,-9.27
2022-12-18T20:14:18.859Z,-9.23
2022-12-18T20:16:53.563Z,-9.27
2022-12-18T20:19:23.068Z,-9.22
2022-12-18T20:21:51.567Z,-9.21
2022-12-18T20:24:20.597Z,-9.19
2022-12-18T20:26:51.714Z,-9.13
2022-12-18T20:29:20.051Z,-9.21
2022-12-18T20:31:50.656Z,-9.10
2022-12-18T20:34:19.487Z,-9.06
2022-12-18T20:36:52.333Z,-9.03
2022-12-18T20:39:20.321Z,-9.03
2022-12-18T20:41:48.611Z,-9.08
2022-12-18T20:44:23.271Z,-9.10
2022-12-18T20:47:08.602Z,-9.11
2022-12-18T20:49:37.568Z,-9.12
2022-12-18T20:52:10.516Z,-9.13
2022-12-18T20:54:39.439Z,-9.10
2022-12-18T20:57:07.603Z,-9.14
2022-12-18T20:59:35.599Z,-9.10
2022-12-18T21:02:05.514Z,-9.16
2022-12-18T21:04:33.324Z,-9.17
2022-12-18T21:07:02.963Z,-9.17
2022-12-18T21:09:37.793Z,-9.17
2022-12-18T21:12:29.620Z,-9.18
2022-12-18T21:15:04.261Z,-9.13
2022-12-18T21:17:34.542Z,-9.19
2022-12-18T21:20:14.072Z,-9.14
2022-12-18T21:22:45.176Z,-9.18
2022-12-18T21:25:12.550Z,-9.15
2022-12-18T21:27:40.058Z,-9.15
2022-12-18T21:30:09.039Z,-9.20
2022-12-18T21:32:37.683Z,-9.20
2022-12-18T21:35:06.284Z,-9.16
2022-12-18T21:37:33.432Z,-9.16
2022-12-18T21:40:00.832Z,-9.21
2022-12-18T21:42:47.604Z,-9.34
2022-12-18T21:45:16.362Z,-9.30
2022-12-18T21:47:43.754Z,-9.31
2022-12-18T21:50:11.191Z,-9.38
2022-12-18T21:52:39.706Z,-9.38
2022-12-18T21:55:10.248Z,-9.38
2022-12-18T21:57:45.805Z,-9.40
2022-12-18T22:00:18.564Z,-9.37
2022-12-18T22:02:47.852Z,-9.39
2022-12-18T22:05:15.252Z,-9.35
2022-12-18T22:07:42.868Z,-9.36
2022-12-18T22:10:11.286Z,-9.28
2022-12-18T22:12:44.147Z,-9.25
2022-12-18T22:15:21.320Z,-9.25
2022-12-18T22:17:50.672Z,-9.25
2022-12-18T22:20:20.371Z,-9.22
2022-12-18T22:22:48.977Z,-9.20
2022-12-18T22:25:16.631Z,-9.20
2022-12-18T22:28:04.688Z,-9.19
2022-12-18T22:30:32.988Z,-9.19
2022-12-18T22:33:00.387Z,-9.19
2022-12-18T22:35:27.958Z,-9.21
2022-12-18T22:37:55.516Z,-9.22
2022-12-18T22:40:27.309Z,-9.24
2022-12-18T22:42:57.045Z,-9.21
2022-12-18T22:45:26.200Z,-9.17
2022-12-18T22:47:53.921Z,-9.20
2022-12-18T22:50:21.409Z,-9.22
2022-12-18T22:52:49.926Z,-9.22
2022-12-18T22:55:17.410Z,-9.19
2022-12-18T22:57:48.932Z,-9.37
2022-12-18T23:00:24.368Z,-9.50
2022-12-18T23:02:59.214Z,-9.49
2022-12-18T23:05:31.643Z,-9.52
2022-12-18T23:07:59.804Z,-9.53
2022-12-18T23:10:28.492Z,-9.56
2022-12-18T23:12:56.241Z,-9.56
2022-12-18T23:15:28.459Z,-9.59
2022-12-18T23:17:57.991Z,-9.59
2022-12-18T23:20:28.514Z,-9.57
2022-12-18T23:23:01.908Z,-9.59
2022-12-18T23:25:29.144Z,-9.63
2022-12-18T23:27:56.700Z,-9.68
2022-12-18T23:30:30.507Z,-9.67
2022-12-18T23:33:00.739Z,-9.67
2022-12-18T23:35:30.130Z,-9.69
2022-12-18T23:37:59.465Z,-9.75
2022-12-18T23:40:27.635Z,-9.66
2022-12-18T23:42:54.748Z,-9.68
2022-12-18T23:45:28.165Z,-9.72
2022-12-18T23:47:55.222Z,-9.73
2022-12-18T23:50:29.116Z,-9.82
2022-12-18T23:53:04.901Z,-9.75
2022-12-18T23:55:37.649Z,-9.77
2022-12-18T23:58:05.087Z,-9.80
